createdAt,value
2023-02-09T00:00:31.049Z,100.00
2023-02-09T00:02:34.092Z,100.00
2023-02-09T00:04:37.508Z,100.00
2023-02-09T00:06:40.251Z,100.00
2023-02-09T00:08:43.418Z,100.00
2023-02-09T00:10:47.981Z,100.00
2023-02-09T00:13:08.322Z,100.00
2023-02-09T00:15:11.221Z,100.00
2023-02-09T00:17:14.077Z,100.00
2023-02-09T00:19:17.773Z,100.00
2023-02-09T00:21:20.480Z,100.00
2023-02-09T00:23:23.227Z,100.00
2023-02-09T00:25:25.975Z,100.00
2023-02-09T00:27:32.289Z,100.00
2023-02-09T00:29:35.210Z,100.00
2023-02-09T00:31:38.928Z,100.00
2023-02-09T00:33:42.360Z,100.00
2023-02-09T00:35:46.024Z,100.00
2023-02-09T00:37:48.818Z,100.00
2023-02-09T00:39:51.605Z,100.00
2023-02-09T00:42:06.316Z,100.00
2023-02-09T00:44:10.552Z,100.00
2023-02-09T00:46:13.375Z,100.00
2023-02-09T00:48:16.153Z,100.00
2023-02-09T00:50:19.191Z,100.00
2023-02-09T00:52:21.919Z,100.00
2023-02-09T00:54:25.115Z,100.00
2023-02-09T00:56:28.030Z,100.00
2023-02-09T00:58:30.837Z,100.00
2023-02-09T01:00:34.928Z,100.00
2023-02-09T01:02:38.541Z,100.00
2023-02-09T01:04:41.338Z,100.00
2023-02-09T01:06:44.483Z,100.00
2023-02-09T01:08:47.242Z,100.00
2023-02-09T01:10:50.021Z,100.00
2023-02-09T01:12:52.816Z,100.00
2023-02-09T01:14:55.656Z,100.00
2023-02-09T01:16:59.856Z,100.00
2023-02-09T01:19:03.876Z,100.00
2023-02-09T01:21:11.274Z,100.00
2023-02-09T01:23:14.166Z,100.00
2023-02-09T01:25:16.984Z,100.00
2023-02-09T01:27:20.246Z,100.00
2023-02-09T01:29:23.070Z,100.00
2023-02-09T01:31:28.097Z,100.00
2023-02-09T01:33:32.652Z,100.00
2023-02-09T01:35:35.483Z,100.00
2023-02-09T01:37:38.333Z,100.00
2023-02-09T01:39:41.100Z,100.00
2023-02-09T01:41:46.062Z,100.00
2023-02-09T01:44:00.867Z,100.00
2023-02-09T01:46:03.688Z,100.00
2023-02-09T01:48:09.578Z,100.00
2023-02-09T01:50:15.392Z,100.00
2023-02-09T01:52:22.270Z,100.00
2023-02-09T01:54:28.463Z,100.00
2023-02-09T01:56:32.380Z,100.00
2023-02-09T01:58:36.237Z,100.00
2023-02-09T02:00:39.701Z,100.00
2023-02-09T02:02:44.024Z,100.00
2023-02-09T02:04:47.228Z,100.00
2023-02-09T02:06:55.234Z,100.00
2023-02-09T02:09:03.196Z,100.00
2023-02-09T02:11:06.795Z,100.00
2023-02-09T02:13:09.645Z,100.00
2023-02-09T02:15:12.737Z,100.00
2023-02-09T02:17:27.812Z,100.00
2023-02-09T02:19:48.444Z,100.00
2023-02-09T02:22:35.010Z,100.00
2023-02-09T02:25:06.400Z,100.00
2023-02-09T02:27:16.464Z,100.00
2023-02-09T02:29:37.945Z,100.00
2023-02-09T02:32:04.089Z,100.00
2023-02-09T02:34:13.756Z,100.00
2023-02-09T02:36:24.065Z,100.00
2023-02-09T02:38:36.724Z,100.00
2023-02-09T02:40:50.454Z,100.00
2023-02-09T02:42:57.614Z,100.00
2023-02-09T02:45:04.981Z,100.00
2023-02-09T02:47:13.718Z,100.00
2023-02-09T02:49:23.871Z,100.00
2023-02-09T02:51:31.113Z,100.00
2023-02-09T02:53:36.858Z,100.00
2023-02-09T02:55:40.891Z,100.00
2023-02-09T02:57:47.478Z,100.00
2023-02-09T02:59:55.624Z,100.00
2023-02-09T03:02:04.616Z,100.00
2023-02-09T03:04:09.865Z,100.00
2023-02-09T03:06:14.756Z,100.00
2023-02-09T03:08:17.635Z,100.00
2023-02-09T03:10:28.005Z,100.00
2023-02-09T03:12:42.695Z,100.00
2023-02-09T03:14:53.564Z,100.00
2023-02-09T03:17:07.646Z,100.00
2023-02-09T03:19:20.267Z,100.00
2023-02-09T03:21:29.637Z,100.00
2023-02-09T03:23:39.074Z,100.00
2023-02-09T03:25:46.690Z,100.00
2023-02-09T03:27:54.818Z,100.00
2023-02-09T03:30:01.017Z,100.00
2023-02-09T03:32:03.851Z,100.00
2023-02-09T03:34:07.640Z,100.00
2023-02-09T03:36:16.349Z,100.00
2023-02-09T03:38:19.141Z,100.00
2023-02-09T03:40:22.186Z,100.00
2023-02-09T03:42:25.518Z,100.00
2023-02-09T03:44:27.542Z,100.00
2023-02-09T03:46:30.300Z,100.00
2023-02-09T03:48:35.213Z,100.00
2023-02-09T03:50:38.364Z,100.00
2023-02-09T03:52:42.518Z,100.00
2023-02-09T03:54:45.708Z,100.00
2023-02-09T03:57:24.387Z,100.00
2023-02-09T03:59:28.501Z,100.00
2023-02-09T04:01:33.288Z,100.00
2023-02-09T04:03:36.413Z,100.00
2023-02-09T04:05:39.274Z,100.00
2023-02-09T04:07:43.335Z,100.00
2023-02-09T04:09:46.098Z,100.00
2023-02-09T04:11:49.422Z,100.00
2023-02-09T04:13:52.193Z,100.00
2023-02-09T04:15:55.042Z,100.00
2023-02-09T04:17:57.776Z,100.00
2023-02-09T04:20:00.553Z,100.00
2023-02-09T04:22:03.268Z,100.00
2023-02-09T04:24:07.974Z,100.00
2023-02-09T04:26:10.767Z,100.00
2023-02-09T04:28:13.525Z,100.00
2023-02-09T04:30:16.860Z,100.00
2023-02-09T04:32:19.604Z,100.00
2023-02-09T04:34:24.157Z,100.00
2023-02-09T04:36:26.901Z,100.00
2023-02-09T04:38:30.025Z,100.00
2023-02-09T04:40:34.219Z,100.00
2023-02-09T04:42:37.094Z,100.00
2023-02-09T04:44:39.801Z,100.00
2023-02-09T04:46:44.702Z,100.00
2023-02-09T04:48:48.312Z,100.00
2023-02-09T04:50:51.912Z,100.00
2023-02-09T04:52:54.602Z,100.00
2023-02-09T04:54:57.318Z,100.00
2023-02-09T04:57:15.305Z,100.00
2023-02-09T04:59:36.147Z,100.00
2023-02-09T05:01:38.906Z,100.00
2023-02-09T05:03:42.540Z,100.00
2023-02-09T05:05:45.448Z,100.00
2023-02-09T05:07:48.221Z,100.00
2023-02-09T05:09:50.910Z,100.00
2023-02-09T05:11:53.676Z,100.00
2023-02-09T05:13:57.955Z,100.00
2023-02-09T05:16:00.684Z,100.00
2023-02-09T05:18:03.399Z,100.00
2023-02-09T05:20:07.472Z,100.00
2023-02-09T05:22:10.201Z,100.00
2023-02-09T05:24:12.893Z,100.00
2023-02-09T05:26:15.598Z,100.00
2023-02-09T05:28:18.392Z,100.00
2023-02-09T05:30:23.105Z,100.00
2023-02-09T05:32:25.927Z,100.00
2023-02-09T05:34:28.760Z,100.00
2023-02-09T05:36:31.469Z,100.00
2023-02-09T05:38:34.209Z,100.00
2023-02-09T05:40:36.967Z,100.00
2023-02-09T05:42:40.677Z,100.00
2023-02-09T05:44:44.226Z,100.00
2023-02-09T05:46:48.329Z,100.00
2023-02-09T05:48:51.120Z,100.00
2023-02-09T05:50:53.963Z,100.00
2023-02-09T05:52:56.734Z,100.00
2023-02-09T05:54:59.374Z,100.00
2023-02-09T05:57:02.327Z,100.00
2023-02-09T05:59:05.011Z,100.00
2023-02-09T06:01:07.696Z,100.00
2023-02-09T06:03:11.748Z,100.00
2023-02-09T06:05:14.544Z,100.00
2023-02-09T06:07:17.348Z,100.00
2023-02-09T06:09:20.103Z,100.00
2023-02-09T06:11:22.827Z,100.00
2023-02-09T06:13:25.524Z,100.00
2023-02-09T06:15:28.277Z,100.00
2023-02-09T06:17:31.064Z,100.00
2023-02-09T06:19:35.595Z,100.00
2023-02-09T06:21:38.814Z,100.00
2023-02-09T06:23:43.037Z,100.00
2023-02-09T06:25:46.305Z,100.00
2023-02-09T06:27:51.349Z,100.00
2023-02-09T06:29:54.493Z,100.00
2023-02-09T06:31:57.399Z,100.00
2023-02-09T06:34:00.570Z,100.00
2023-02-09T06:36:06.908Z,100.00
2023-02-09T06:38:09.636Z,100.00
2023-02-09T06:40:13.230Z,100.00
2023-02-09T06:42:16.221Z,100.00
2023-02-09T06:44:19.182Z,100.00
2023-02-09T06:46:22.126Z,100.00
2023-02-09T06:48:25.209Z,100.00
2023-02-09T06:50:28.061Z,100.00
2023-02-09T06:52:32.453Z,100.00
2023-02-09T06:54:35.191Z,100.00
2023-02-09T06:56:38.227Z,100.00
2023-02-09T06:58:42.307Z,100.00
2023-02-09T07:00:46.296Z,100.00
2023-02-09T07:02:49.365Z,100.00
2023-02-09T07:04:52.062Z,100.00
2023-02-09T07:06:54.801Z,100.00
2023-02-09T07:08:58.849Z,100.00
2023-02-09T07:11:05.582Z,100.00
2023-02-09T07:13:08.336Z,100.00
2023-02-09T07:15:12.717Z,100.00
2023-02-09T07:17:15.411Z,100.00
2023-02-09T07:19:18.075Z,100.00
2023-02-09T07:21:21.493Z,100.00
2023-02-09T07:23:24.642Z,100.00
2023-02-09T07:25:28.722Z,100.00
2023-02-09T07:27:31.421Z,100.00
2023-02-09T07:29:34.573Z,100.00
2023-02-09T07:31:37.514Z,100.00
2023-02-09T07:33:40.503Z,100.00
2023-02-09T07:35:43.169Z,100.00
2023-02-09T07:37:45.886Z,100.00
2023-02-09T07:39:48.706Z,100.00
2023-02-09T07:41:53.018Z,100.00
2023-02-09T07:43:57.830Z,100.00
2023-02-09T07:46:01.487Z,100.00
2023-02-09T07:48:04.187Z,100.00
2023-02-09T07:50:07.035Z,100.00
2023-02-09T07:52:09.715Z,100.00
2023-02-09T07:54:14.124Z,100.00
2023-02-09T07:56:16.824Z,100.00
2023-02-09T07:58:21.181Z,100.00
2023-02-09T08:00:25.456Z,100.00
2023-02-09T08:02:34.044Z,100.00
2023-02-09T08:04:36.726Z,100.00
2023-02-09T08:06:44.980Z,100.00
2023-02-09T08:08:48.704Z,100.00
2023-02-09T08:10:51.878Z,100.00
2023-02-09T08:13:02.615Z,100.00
2023-02-09T08:15:07.674Z,100.00
2023-02-09T08:17:24.169Z,100.00
2023-02-09T08:19:26.986Z,100.00
2023-02-09T08:21:32.530Z,100.00
2023-02-09T08:23:39.498Z,100.00
2023-02-09T08:25:43.448Z,100.00
2023-02-09T08:27:47.064Z,100.00
2023-02-09T08:29:49.861Z,100.00
2023-02-09T08:31:53.891Z,100.00
2023-02-09T08:33:56.600Z,100.00
2023-02-09T08:35:59.380Z,100.00
2023-02-09T08:38:02.412Z,100.00
2023-02-09T08:40:05.816Z,100.00
2023-02-09T08:42:08.566Z,100.00
2023-02-09T08:44:11.884Z,100.00
2023-02-09T08:46:14.800Z,100.00
2023-02-09T08:48:18.903Z,100.00
2023-02-09T08:50:21.692Z,100.00
2023-02-09T08:52:24.518Z,100.00
2023-02-09T08:54:27.351Z,100.00
2023-02-09T08:56:30.043Z,100.00
2023-02-09T08:58:33.312Z,100.00
2023-02-09T09:00:36.051Z,100.00
2023-02-09T09:02:38.753Z,100.00
2023-02-09T09:04:42.843Z,100.00
2023-02-09T09:06:46.517Z,100.00
2023-02-09T09:08:49.363Z,100.00
2023-02-09T09:10:52.071Z,100.00
2023-02-09T09:12:54.813Z,100.00
2023-02-09T09:14:57.594Z,100.00
2023-02-09T09:17:00.690Z,100.00
2023-02-09T09:19:05.731Z,100.00
2023-02-09T09:21:12.113Z,100.00
2023-02-09T09:23:15.271Z,100.00
2023-02-09T09:25:18.179Z,100.00
2023-02-09T09:27:20.863Z,100.00
2023-02-09T09:29:24.112Z,100.00
2023-02-09T09:31:26.877Z,100.00
2023-02-09T09:33:29.694Z,100.00
2023-02-09T09:35:32.672Z,98.22
2023-02-09T09:37:36.716Z,99.39
2023-02-09T09:39:39.635Z,98.14
2023-02-09T09:41:42.430Z,95.10
2023-02-09T09:43:45.261Z,95.09
2023-02-09T09:45:48.791Z,95.95
2023-02-09T09:47:52.284Z,95.62
2023-02-09T09:49:55.171Z,94.60
2023-02-09T09:52:01.366Z,93.09
2023-02-09T09:54:08.283Z,92.89
2023-02-09T09:56:14.090Z,90.94
2023-02-09T09:58:20.558Z,88.21
2023-02-09T10:00:26.440Z,89.08
2023-02-09T10:02:31.956Z,88.28
2023-02-09T10:04:35.138Z,88.46
2023-02-09T10:06:41.618Z,88.42
2023-02-09T10:08:50.947Z,85.38
2023-02-09T10:11:01.214Z,85.73
2023-02-09T10:13:09.631Z,85.85
2023-02-09T10:15:26.119Z,84.49
2023-02-09T10:17:28.830Z,80.54
2023-02-09T10:19:32.713Z,78.23
2023-02-09T10:21:37.302Z,77.72
2023-02-09T10:23:42.207Z,78.62
2023-02-09T10:25:59.220Z,76.68
2023-02-09T10:28:06.441Z,77.09
2023-02-09T10:30:20.539Z,76.47
2023-02-09T10:32:25.002Z,75.67
2023-02-09T10:34:33.500Z,75.08
2023-02-09T10:36:38.741Z,75.42
2023-02-09T10:38:42.025Z,75.28
2023-02-09T10:40:47.474Z,73.77
2023-02-09T10:42:56.997Z,74.69
2023-02-09T10:45:08.198Z,73.66
2023-02-09T10:47:23.766Z,71.94
2023-02-09T10:49:32.027Z,70.27
2023-02-09T10:51:34.996Z,68.33
2023-02-09T10:53:39.810Z,68.50
2023-02-09T10:55:43.360Z,65.62
2023-02-09T10:57:46.180Z,66.35
2023-02-09T10:59:54.606Z,66.40
2023-02-09T11:01:59.439Z,63.45
2023-02-09T11:04:04.767Z,62.18
2023-02-09T11:06:16.429Z,61.59
2023-02-09T11:08:22.803Z,56.53
2023-02-09T11:10:26.910Z,57.16
2023-02-09T11:12:30.285Z,56.39
2023-02-09T11:14:32.957Z,56.61
2023-02-09T11:16:58.368Z,54.88
2023-02-09T11:19:08.563Z,54.11
2023-02-09T11:21:19.798Z,55.06
2023-02-09T11:23:37.030Z,52.37
2023-02-09T11:25:46.577Z,52.99
2023-02-09T11:28:04.476Z,53.44
2023-02-09T11:30:19.440Z,53.20
2023-02-09T11:32:34.294Z,51.65
2023-02-09T11:34:54.806Z,51.53
2023-02-09T11:37:07.787Z,52.73
2023-02-09T11:39:20.221Z,52.21
2023-02-09T11:41:59.097Z,51.35
2023-02-09T11:44:06.844Z,50.89
2023-02-09T11:46:15.671Z,52.56
2023-02-09T11:48:25.896Z,52.57
2023-02-09T11:50:34.411Z,53.17
2023-02-09T11:52:40.535Z,53.95
2023-02-09T11:54:48.495Z,50.50
2023-02-09T11:56:54.070Z,50.31
2023-02-09T11:59:02.074Z,49.59
2023-02-09T12:01:15.880Z,48.50
2023-02-09T12:03:18.965Z,47.36
2023-02-09T12:05:24.902Z,46.32
2023-02-09T12:07:35.373Z,46.82
2023-02-09T12:09:49.922Z,46.80
2023-02-09T12:12:04.768Z,46.66
2023-02-09T12:14:21.168Z,46.33
2023-02-09T12:16:27.543Z,46.08
2023-02-09T12:18:34.197Z,45.42
2023-02-09T12:20:52.373Z,44.66
2023-02-09T12:23:01.034Z,44.90
2023-02-09T12:25:19.292Z,44.31
2023-02-09T12:27:27.263Z,44.21
2023-02-09T12:29:39.394Z,44.57
2023-02-09T12:32:15.200Z,44.12
2023-02-09T12:34:30.303Z,43.86
2023-02-09T12:36:35.835Z,43.20
2023-02-09T12:39:07.444Z,43.21
2023-02-09T12:41:12.893Z,43.43
2023-02-09T12:43:30.804Z,42.59
2023-02-09T12:45:36.877Z,41.73
2023-02-09T12:47:55.596Z,42.36
2023-02-09T12:50:05.164Z,42.94
2023-02-09T12:52:17.831Z,41.92
2023-02-09T12:54:30.208Z,42.50
2023-02-09T12:56:34.257Z,42.52
2023-02-09T12:58:40.126Z,41.85
2023-02-09T13:00:53.781Z,40.99
2023-02-09T13:02:57.585Z,40.38
2023-02-09T13:05:05.113Z,41.20
2023-02-09T13:07:18.587Z,40.98
2023-02-09T13:09:29.012Z,40.40
2023-02-09T13:11:41.428Z,39.54
2023-02-09T13:13:50.557Z,39.78
2023-02-09T13:16:10.125Z,39.77
2023-02-09T13:18:21.038Z,39.50
2023-02-09T13:20:41.008Z,38.39
2023-02-09T13:22:57.836Z,39.11
2023-02-09T13:25:11.547Z,39.28
2023-02-09T13:27:24.494Z,38.74
2023-02-09T13:29:28.779Z,38.74
2023-02-09T13:31:36.909Z,38.63
2023-02-09T13:33:47.463Z,38.15
2023-02-09T13:36:08.847Z,37.57
2023-02-09T13:38:17.731Z,37.15
2023-02-09T13:40:24.786Z,37.08
2023-02-09T13:42:29.910Z,36.18
2023-02-09T13:44:35.019Z,36.22
2023-02-09T13:46:39.270Z,36.63
2023-02-09T13:48:41.986Z,37.12
2023-02-09T13:50:48.274Z,38.15
2023-02-09T13:52:51.813Z,38.15
2023-02-09T13:54:55.193Z,37.69
2023-02-09T13:57:01.702Z,38.74
2023-02-09T13:59:04.955Z,39.11
2023-02-09T14:01:10.333Z,40.03
2023-02-09T14:03:18.777Z,39.91
2023-02-09T14:05:27.407Z,39.04
2023-02-09T14:07:35.257Z,38.33
2023-02-09T14:09:45.143Z,39.62
2023-02-09T14:11:52.942Z,40.35
2023-02-09T14:14:02.086Z,40.29
2023-02-09T14:16:06.839Z,38.98
2023-02-09T14:18:43.108Z,41.22
2023-02-09T14:20:59.812Z,43.41
2023-02-09T14:23:02.984Z,42.07
2023-02-09T14:25:18.058Z,41.82
2023-02-09T14:27:24.130Z,43.53
2023-02-09T14:29:30.277Z,42.58
2023-02-09T14:31:36.373Z,43.72
2023-02-09T14:33:39.259Z,43.71
2023-02-09T14:35:42.656Z,43.11
2023-02-09T14:37:46.457Z,43.85
2023-02-09T14:39:56.681Z,43.61
2023-02-09T14:42:17.732Z,44.47
2023-02-09T14:44:22.225Z,42.87
2023-02-09T14:46:26.326Z,42.18
2023-02-09T14:48:31.223Z,41.37
2023-02-09T14:50:33.952Z,41.98
2023-02-09T14:52:38.901Z,41.08
2023-02-09T14:54:48.225Z,41.42
2023-02-09T14:56:51.420Z,41.39
2023-02-09T14:58:55.459Z,39.75
2023-02-09T15:01:01.088Z,40.30
2023-02-09T15:03:05.271Z,40.73
2023-02-09T15:05:08.290Z,42.08
2023-02-09T15:07:13.372Z,41.21
2023-02-09T15:09:22.412Z,40.91
2023-02-09T15:11:43.161Z,39.85
2023-02-09T15:13:45.903Z,41.14
2023-02-09T15:15:49.171Z,41.99
2023-02-09T15:17:54.153Z,40.80
2023-02-09T15:19:59.390Z,41.08
2023-02-09T15:22:07.896Z,42.72
2023-02-09T15:24:10.787Z,43.71
2023-02-09T15:26:16.926Z,45.18
2023-02-09T15:28:28.138Z,48.81
2023-02-09T15:30:34.051Z,48.74
2023-02-09T15:32:36.770Z,48.49
2023-02-09T15:34:39.472Z,46.50
2023-02-09T15:36:43.586Z,48.34
2023-02-09T15:38:46.802Z,50.02
2023-02-09T15:41:08.692Z,51.44
2023-02-09T15:43:36.891Z,54.47
2023-02-09T15:45:57.418Z,56.67
2023-02-09T15:48:00.685Z,58.54
2023-02-09T15:50:03.618Z,62.83
2023-02-09T15:52:08.324Z,64.77
2023-02-09T15:54:16.518Z,62.94
2023-02-09T15:56:20.590Z,61.73
2023-02-09T15:58:35.284Z,63.55
2023-02-09T16:00:38.274Z,66.14
2023-02-09T16:02:41.025Z,65.36
2023-02-09T16:04:44.256Z,66.32
2023-02-09T16:06:50.515Z,67.33
2023-02-09T16:08:55.481Z,66.62
2023-02-09T16:10:58.244Z,67.70
2023-02-09T16:13:01.120Z,66.09
2023-02-09T16:15:03.908Z,65.70
2023-02-09T16:17:07.717Z,66.80
2023-02-09T16:19:10.521Z,67.19
2023-02-09T16:21:21.046Z,65.86
2023-02-09T16:23:25.003Z,65.83
2023-02-09T16:25:30.938Z,67.53
2023-02-09T16:27:33.749Z,66.71
2023-02-09T16:29:36.448Z,67.88
2023-02-09T16:31:39.280Z,73.81
2023-02-09T16:33:43.346Z,72.25
2023-02-09T16:35:54.600Z,70.26
2023-02-09T16:37:59.200Z,68.97
2023-02-09T16:40:08.436Z,70.16
2023-02-09T16:42:15.259Z,72.34
2023-02-09T16:44:20.843Z,71.28
2023-02-09T16:46:23.603Z,72.69
2023-02-09T16:48:29.040Z,75.02
2023-02-09T16:50:33.874Z,76.71
2023-02-09T16:52:36.655Z,76.44
2023-02-09T16:54:43.169Z,77.53
2023-02-09T16:56:54.023Z,77.83
2023-02-09T16:58:58.508Z,77.71
2023-02-09T17:01:01.350Z,78.24
2023-02-09T17:03:14.024Z,77.99
2023-02-09T17:05:21.411Z,78.25
2023-02-09T17:07:30.229Z,78.58
2023-02-09T17:09:32.925Z,78.15
2023-02-09T17:11:35.646Z,77.95
2023-02-09T17:13:38.338Z,78.22
2023-02-09T17:15:45.050Z,78.73
2023-02-09T17:17:52.882Z,78.66
2023-02-09T17:19:56.558Z,79.29
2023-02-09T17:22:00.344Z,78.29
2023-02-09T17:24:05.140Z,77.84
2023-02-09T17:26:07.882Z,78.40
2023-02-09T17:28:10.905Z,78.69
2023-02-09T17:30:19.353Z,78.10
2023-02-09T17:32:23.545Z,77.80
2023-02-09T17:34:28.362Z,79.33
2023-02-09T17:36:31.737Z,79.19
2023-02-09T17:38:40.892Z,79.19
2023-02-09T17:40:43.878Z,81.58
2023-02-09T17:42:47.755Z,81.44
2023-02-09T17:44:51.405Z,82.67
2023-02-09T17:46:54.752Z,83.48
2023-02-09T17:48:58.980Z,82.92
2023-02-09T17:51:02.750Z,84.44
2023-02-09T17:53:13.322Z,87.96
2023-02-09T17:55:25.498Z,86.50
2023-02-09T17:57:28.311Z,87.84
2023-02-09T17:59:31.372Z,87.19
2023-02-09T18:01:34.162Z,86.54
2023-02-09T18:03:36.938Z,85.25
2023-02-09T18:05:41.424Z,87.43
2023-02-09T18:07:48.707Z,89.10
2023-02-09T18:09:51.934Z,90.14
2023-02-09T18:12:02.018Z,89.82
2023-02-09T18:14:04.821Z,89.82
2023-02-09T18:16:08.226Z,90.77
2023-02-09T18:18:11.318Z,89.27
2023-02-09T18:20:17.561Z,89.03
2023-02-09T18:22:21.690Z,88.67
2023-02-09T18:24:25.665Z,89.67
2023-02-09T18:26:35.309Z,89.28
2023-02-09T18:28:38.003Z,89.67
2023-02-09T18:30:41.809Z,90.82
2023-02-09T18:32:44.650Z,91.25
2023-02-09T18:34:47.398Z,92.11
2023-02-09T18:36:50.203Z,92.69
2023-02-09T18:38:54.914Z,93.78
2023-02-09T18:40:58.788Z,96.89
2023-02-09T18:43:03.335Z,95.71
2023-02-09T18:45:06.735Z,100.00
2023-02-09T18:47:10.756Z,97.59
2023-02-09T18:49:13.556Z,96.89
2023-02-09T18:51:16.237Z,97.85
2023-02-09T18:53:22.041Z,95.89
2023-02-09T18:55:29.291Z,96.60
2023-02-09T18:57:31.971Z,95.82
2023-02-09T18:59:35.318Z,95.49
2023-02-09T19:01:38.507Z,92.18
2023-02-09T19:03:41.249Z,91.41
2023-02-09T19:05:44.616Z,93.66
2023-02-09T19:07:47.859Z,94.12
2023-02-09T19:09:50.577Z,94.00
2023-02-09T19:11:54.618Z,93.01
2023-02-09T19:14:14.883Z,93.51
2023-02-09T19:16:17.576Z,92.39
2023-02-09T19:18:24.726Z,94.04
2023-02-09T19:20:32.349Z,95.46
2023-02-09T19:22:35.923Z,96.12
2023-02-09T19:24:38.705Z,97.92
2023-02-09T19:26:41.453Z,98.78
2023-02-09T19:28:45.467Z,98.38
2023-02-09T19:30:48.232Z,97.08
2023-02-09T19:32:51.269Z,95.55
2023-02-09T19:34:56.533Z,95.47
2023-02-09T19:36:59.699Z,94.84
2023-02-09T19:39:02.601Z,95.80
2023-02-09T19:41:10.695Z,94.70
2023-02-09T19:43:13.841Z,93.31
2023-02-09T19:45:19.326Z,94.10
2023-02-09T19:47:25.874Z,92.69
2023-02-09T19:49:29.410Z,92.93
2023-02-09T19:51:32.516Z,93.38
2023-02-09T19:53:36.008Z,95.96
2023-02-09T19:55:40.798Z,97.18
2023-02-09T19:57:43.517Z,99.57
2023-02-09T19:59:46.238Z,99.59
2023-02-09T20:01:50.308Z,98.25
2023-02-09T20:03:53.190Z,98.06
2023-02-09T20:05:55.854Z,99.61
2023-02-09T20:07:58.734Z,98.68
2023-02-09T20:10:01.418Z,96.81
2023-02-09T20:12:04.463Z,97.41
2023-02-09T20:14:07.472Z,98.67
2023-02-09T20:16:12.527Z,99.37
2023-02-09T20:18:17.671Z,99.03
2023-02-09T20:20:23.611Z,100.00
2023-02-09T20:22:26.516Z,99.74
2023-02-09T20:24:29.248Z,98.38
2023-02-09T20:26:33.257Z,97.92
2023-02-09T20:28:36.127Z,97.58
2023-02-09T20:30:42.041Z,98.42
2023-02-09T20:32:44.714Z,95.77
2023-02-09T20:34:48.749Z,98.46
2023-02-09T20:36:51.408Z,97.90
2023-02-09T20:38:54.279Z,97.99
2023-02-09T20:40:56.958Z,97.45
2023-02-09T20:43:17.373Z,98.38
2023-02-09T20:45:37.831Z,98.86
2023-02-09T20:47:40.661Z,100.00
2023-02-09T20:49:43.683Z,98.60
2023-02-09T20:51:48.116Z,98.97
2023-02-09T20:53:51.245Z,99.85
2023-02-09T20:55:55.239Z,99.94
2023-02-09T20:57:59.151Z,97.26
2023-02-09T21:00:04.624Z,99.81
2023-02-09T21:02:07.394Z,100.00
2023-02-09T21:04:10.288Z,98.40
2023-02-09T21:06:13.581Z,100.00
2023-02-09T21:08:18.078Z,99.55
2023-02-09T21:10:20.987Z,97.49
2023-02-09T21:12:24.536Z,100.00
2023-02-09T21:14:41.344Z,99.11
2023-02-09T21:16:45.276Z,100.00
2023-02-09T21:18:47.993Z,97.59
2023-02-09T21:20:50.848Z,99.03
2023-02-09T21:22:53.763Z,100.00
2023-02-09T21:24:57.781Z,96.86
2023-02-09T21:27:00.978Z,100.00
2023-02-09T21:29:03.718Z,100.00
2023-02-09T21:31:10.539Z,100.00
2023-02-09T21:33:13.315Z,100.00
2023-02-09T21:35:16.724Z,99.93
2023-02-09T21:37:20.407Z,100.00
2023-02-09T21:39:23.150Z,100.00
2023-02-09T21:41:45.268Z,99.82
2023-02-09T21:43:48.514Z,100.00
2023-02-09T21:45:51.289Z,100.00
2023-02-09T21:47:54.011Z,100.00
2023-02-09T21:49:57.298Z,100.00
2023-02-09T21:52:00.407Z,100.00
2023-02-09T21:54:03.151Z,100.00
2023-02-09T21:56:07.149Z,100.00
2023-02-09T21:58:11.211Z,100.00
2023-02-09T22:00:15.352Z,100.00
2023-02-09T22:02:19.503Z,100.00
2023-02-09T22:04:22.387Z,100.00
2023-02-09T22:06:26.208Z,100.00
2023-02-09T22:08:29.850Z,100.00
2023-02-09T22:10:32.599Z,100.00
2023-02-09T22:12:36.418Z,100.00
2023-02-09T22:14:40.577Z,100.00
2023-02-09T22:16:43.498Z,100.00
2023-02-09T22:18:46.366Z,100.00
2023-02-09T22:20:50.773Z,100.00
2023-02-09T22:22:53.496Z,100.00
2023-02-09T22:24:57.187Z,100.00
2023-02-09T22:27:00.021Z,100.00
2023-02-09T22:29:02.790Z,100.00
2023-02-09T22:31:08.561Z,100.00
2023-02-09T22:33:11.331Z,100.00
2023-02-09T22:35:14.068Z,100.00
2023-02-09T22:37:16.844Z,100.00
2023-02-09T22:39:19.853Z,100.00
2023-02-09T22:41:24.645Z,100.00
2023-02-09T22:43:27.967Z,100.00
2023-02-09T22:45:30.772Z,100.00
2023-02-09T22:47:35.643Z,100.00
2023-02-09T22:49:38.403Z,100.00
2023-02-09T22:51:41.114Z,100.00
2023-02-09T22:53:43.915Z,100.00
2023-02-09T22:55:48.356Z,100.00
2023-02-09T22:57:51.258Z,100.00
2023-02-09T22:59:54.033Z,100.00
2023-02-09T23:01:56.794Z,100.00
2023-02-09T23:04:01.212Z,100.00
2023-02-09T23:06:05.821Z,100.00
2023-02-09T23:08:08.688Z,100.00
2023-02-09T23:10:11.459Z,100.00
2023-02-09T23:12:14.186Z,100.00
2023-02-09T23:14:18.226Z,100.00
2023-02-09T23:16:23.497Z,100.00
2023-02-09T23:18:26.196Z,100.00
2023-02-09T23:20:30.313Z,100.00
2023-02-09T23:22:33.022Z,100.00
2023-02-09T23:24:35.759Z,100.00
2023-02-09T23:26:38.907Z,100.00
2023-02-09T23:28:41.613Z,100.00
2023-02-09T23:30:45.271Z,100.00
2023-02-09T23:32:49.266Z,100.00
2023-02-09T23:34:52.002Z,100.00
2023-02-09T23:36:57.374Z,100.00
2023-02-09T23:39:04.810Z,100.00
2023-02-09T23:41:08.630Z,100.00
2023-02-09T23:43:11.357Z,100.00
2023-02-09T23:45:14.192Z,100.00
2023-02-09T23:47:17.075Z,100.00
2023-02-09T23:49:19.849Z,100.00
2023-02-09T23:51:26.464Z,100.00
2023-02-09T23:53:31.447Z,100.00
2023-02-09T23:55:34.157Z,100.00
2023-02-09T23:57:36.839Z,100.00
2023-02-09T23:59:40.285Z,100.00
